sensor_id;sensor_type;location;lat;lon;timestamp;P1;durP1;ratioP1;P2;durP2;ratioP2
20417;SDS011;10368;51.436;6.774;2022-12-10T00:03:57;66.37;;;28.57;;
20417;SDS011;10368;51.436;6.774;2022-12-10T00:06:26;60.73;;;28.83;;
20417;SDS011;10368;51.436;6.774;2022-12-10T00:08:55;60.10;;;28.87;;
20417;SDS011;10368;51.436;6.774;2022-12-10T00:11:22;64.57;;;28.90;;
20417;SDS011;10368;51.436;6.774;2022-12-10T00:13:49;66.13;;;30.43;;
20417;SDS011;10368;51.436;6.774;2022-12-10T00:16:19;64.47;;;29.77;;
20417;SDS011;10368;51.436;6.774;2022-12-10T00:18:48;66.93;;;29.97;;
20417;SDS011;10368;51.436;6.774;2022-12-10T00:21:17;66.30;;;28.67;;
20417;SDS011;10368;51.436;6.774;2022-12-10T00:23:49;58.40;;;28.63;;
20417;SDS011;10368;51.436;6.774;2022-12-10T00:26:18;60.87;;;29.63;;
20417;SDS011;10368;51.436;6.774;2022-12-10T00:28:46;68.97;;;29.73;;
20417;SDS011;10368;51.436;6.774;2022-12-10T00:31:15;70.33;;;31.00;;
20417;SDS011;10368;51.436;6.774;2022-12-10T00:33:47;66.13;;;30.17;;
20417;SDS011;10368;51.436;6.774;2022-12-10T00:36:16;58.13;;;28.63;;
20417;SDS011;10368;51.436;6.774;2022-12-10T00:38:46;70.03;;;31.13;;
20417;SDS011;10368;51.436;6.774;2022-12-10T00:41:13;75.07;;;30.47;;
20417;SDS011;10368;51.436;6.774;2022-12-10T00:43:41;64.13;;;30.60;;
20417;SDS011;10368;51.436;6.774;2022-12-10T00:46:09;69.63;;;31.70;;
20417;SDS011;10368;51.436;6.774;2022-12-10T00:48:36;60.80;;;29.27;;
20417;SDS011;10368;51.436;6.774;2022-12-10T00:53:48;62.90;;;29.63;;
20417;SDS011;10368;51.436;6.774;2022-12-10T00:56:17;68.50;;;30.73;;
20417;SDS011;10368;51.436;6.774;2022-12-10T00:58:46;73.93;;;31.53;;
20417;SDS011;10368;51.436;6.774;2022-12-10T01:01:15;71.80;;;32.60;;
20417;SDS011;10368;51.436;6.774;2022-12-10T01:03:50;72.93;;;32.13;;
20417;SDS011;10368;51.436;6.774;2022-12-10T01:06:23;68.87;;;30.27;;
20417;SDS011;10368;51.436;6.774;2022-12-10T01:08:52;76.67;;;31.40;;
20417;SDS011;10368;51.436;6.774;2022-12-10T01:11:22;72.80;;;30.87;;
20417;SDS011;10368;51.436;6.774;2022-12-10T01:13:52;65.33;;;31.23;;
20417;SDS011;10368;51.436;6.774;2022-12-10T01:16:20;71.90;;;29.70;;
20417;SDS011;10368;51.436;6.774;2022-12-10T01:18:48;73.03;;;32.07;;
20417;SDS011;10368;51.436;6.774;2022-12-10T01:21:16;72.27;;;31.27;;
20417;SDS011;10368;51.436;6.774;2022-12-10T01:23:45;68.93;;;31.53;;
20417;SDS011;10368;51.436;6.774;2022-12-10T01:26:15;69.53;;;31.27;;
20417;SDS011;10368;51.436;6.774;2022-12-10T01:28:49;71.57;;;31.30;;
20417;SDS011;10368;51.436;6.774;2022-12-10T01:31:24;73.03;;;31.27;;
20417;SDS011;10368;51.436;6.774;2022-12-10T01:33:53;65.17;;;29.97;;
20417;SDS011;10368;51.436;6.774;2022-12-10T01:36:26;63.47;;;29.23;;
20417;SDS011;10368;51.436;6.774;2022-12-10T01:38:55;77.57;;;31.80;;
20417;SDS011;10368;51.436;6.774;2022-12-10T01:41:27;73.00;;;31.33;;
20417;SDS011;10368;51.436;6.774;2022-12-10T01:44:02;80.50;;;32.23;;
20417;SDS011;10368;51.436;6.774;2022-12-10T01:46:46;77.83;;;32.07;;
20417;SDS011;10368;51.436;6.774;2022-12-10T01:49:18;70.37;;;31.20;;
20417;SDS011;10368;51.436;6.774;2022-12-10T01:51:48;79.20;;;33.47;;
20417;SDS011;10368;51.436;6.774;2022-12-10T01:54:20;70.80;;;31.13;;
20417;SDS011;10368;51.436;6.774;2022-12-10T01:57:09;70.03;;;32.00;;
20417;SDS011;10368;51.436;6.774;2022-12-10T01:59:39;71.00;;;31.97;;
20417;SDS011;10368;51.436;6.774;2022-12-10T02:07:48;68.57;;;30.00;;
20417;SDS011;10368;51.436;6.774;2022-12-10T02:10:32;73.30;;;31.33;;
20417;SDS011;10368;51.436;6.774;2022-12-10T02:18:37;72.27;;;30.73;;
20417;SDS011;10368;51.436;6.774;2022-12-10T02:21:18;63.40;;;30.73;;
20417;SDS011;10368;51.436;6.774;2022-12-10T02:23:51;59.70;;;29.27;;
20417;SDS011;10368;51.436;6.774;2022-12-10T02:26:30;71.70;;;31.43;;
20417;SDS011;10368;51.436;6.774;2022-12-10T02:31:38;66.23;;;30.60;;
20417;SDS011;10368;51.436;6.774;2022-12-10T02:34:10;67.40;;;31.00;;
20417;SDS011;10368;51.436;6.774;2022-12-10T02:36:39;81.03;;;33.43;;
20417;SDS011;10368;51.436;6.774;2022-12-10T02:39:11;91.40;;;35.90;;
20417;SDS011;10368;51.436;6.774;2022-12-10T02:41:42;80.83;;;33.73;;
20417;SDS011;10368;51.436;6.774;2022-12-10T02:44:14;76.53;;;32.13;;
20417;SDS011;10368;51.436;6.774;2022-12-10T02:46:43;83.20;;;34.30;;
20417;SDS011;10368;51.436;6.774;2022-12-10T02:49:13;75.63;;;32.50;;
20417;SDS011;10368;51.436;6.774;2022-12-10T02:51:42;94.37;;;35.53;;
20417;SDS011;10368;51.436;6.774;2022-12-10T02:57:00;78.20;;;34.37;;
20417;SDS011;10368;51.436;6.774;2022-12-10T02:59:42;77.97;;;33.57;;
20417;SDS011;10368;51.436;6.774;2022-12-10T03:08:08;70.20;;;31.57;;
20417;SDS011;10368;51.436;6.774;2022-12-10T03:10:43;70.47;;;31.60;;
20417;SDS011;10368;51.436;6.774;2022-12-10T03:13:17;70.97;;;30.40;;
20417;SDS011;10368;51.436;6.774;2022-12-10T03:15:48;76.80;;;32.17;;
20417;SDS011;10368;51.436;6.774;2022-12-10T03:18:17;71.80;;;31.80;;
20417;SDS011;10368;51.436;6.774;2022-12-10T03:20:46;80.60;;;33.93;;
20417;SDS011;10368;51.436;6.774;2022-12-10T03:23:16;73.27;;;32.80;;
20417;SDS011;10368;51.436;6.774;2022-12-10T03:25:45;78.80;;;33.43;;
20417;SDS011;10368;51.436;6.774;2022-12-10T03:28:16;79.40;;;31.23;;
20417;SDS011;10368;51.436;6.774;2022-12-10T03:30:45;78.80;;;32.73;;
20417;SDS011;10368;51.436;6.774;2022-12-10T03:33:15;81.43;;;32.23;;
20417;SDS011;10368;51.436;6.774;2022-12-10T03:35:43;74.17;;;31.60;;
20417;SDS011;10368;51.436;6.774;2022-12-10T03:38:10;71.90;;;31.80;;
20417;SDS011;10368;51.436;6.774;2022-12-10T03:40:37;76.13;;;32.40;;
20417;SDS011;10368;51.436;6.774;2022-12-10T03:43:04;75.87;;;33.90;;
20417;SDS011;10368;51.436;6.774;2022-12-10T03:45:31;70.03;;;30.47;;
20417;SDS011;10368;51.436;6.774;2022-12-10T03:47:58;77.37;;;32.47;;
20417;SDS011;10368;51.436;6.774;2022-12-10T03:50:25;74.70;;;33.60;;
20417;SDS011;10368;51.436;6.774;2022-12-10T03:52:51;68.23;;;30.57;;
20417;SDS011;10368;51.436;6.774;2022-12-10T03:55:18;78.80;;;33.90;;
20417;SDS011;10368;51.436;6.774;2022-12-10T03:57:45;79.77;;;33.43;;
20417;SDS011;10368;51.436;6.774;2022-12-10T04:00:12;73.10;;;33.23;;
20417;SDS011;10368;51.436;6.774;2022-12-10T04:02:39;62.73;;;30.23;;
20417;SDS011;10368;51.436;6.774;2022-12-10T04:05:07;69.17;;;31.37;;
20417;SDS011;10368;51.436;6.774;2022-12-10T04:07:34;69.63;;;32.20;;
20417;SDS011;10368;51.436;6.774;2022-12-10T04:10:02;84.33;;;35.50;;
20417;SDS011;10368;51.436;6.774;2022-12-10T04:12:29;66.07;;;31.57;;
20417;SDS011;10368;51.436;6.774;2022-12-10T04:14:56;79.67;;;35.23;;
20417;SDS011;10368;51.436;6.774;2022-12-10T04:17:42;74.63;;;32.40;;
20417;SDS011;10368;51.436;6.774;2022-12-10T04:20:09;84.10;;;34.40;;
20417;SDS011;10368;51.436;6.774;2022-12-10T04:22:56;73.57;;;35.30;;
20417;SDS011;10368;51.436;6.774;2022-12-10T04:25:41;75.27;;;32.40;;
20417;SDS011;10368;51.436;6.774;2022-12-10T04:28:27;80.47;;;33.67;;
20417;SDS011;10368;51.436;6.774;2022-12-10T04:30:53;84.57;;;35.23;;
20417;SDS011;10368;51.436;6.774;2022-12-10T04:33:20;80.50;;;34.67;;
20417;SDS011;10368;51.436;6.774;2022-12-10T04:35:47;87.07;;;35.77;;
20417;SDS011;10368;51.436;6.774;2022-12-10T04:38:16;82.53;;;34.97;;
20417;SDS011;10368;51.436;6.774;2022-12-10T04:40:43;82.43;;;33.97;;
20417;SDS011;10368;51.436;6.774;2022-12-10T04:43:10;92.00;;;37.33;;
20417;SDS011;10368;51.436;6.774;2022-12-10T04:45:37;94.80;;;36.50;;
20417;SDS011;10368;51.436;6.774;2022-12-10T04:48:04;92.33;;;35.30;;
20417;SDS011;10368;51.436;6.774;2022-12-10T04:50:31;88.13;;;35.93;;
20417;SDS011;10368;51.436;6.774;2022-12-10T04:52:57;78.30;;;34.60;;
20417;SDS011;10368;51.436;6.774;2022-12-10T04:55:24;83.77;;;33.43;;
20417;SDS011;10368;51.436;6.774;2022-12-10T04:57:51;77.73;;;31.93;;
20417;SDS011;10368;51.436;6.774;2022-12-10T05:00:18;82.83;;;34.83;;
20417;SDS011;10368;51.436;6.774;2022-12-10T05:02:47;77.00;;;33.20;;
20417;SDS011;10368;51.436;6.774;2022-12-10T05:05:15;72.33;;;31.53;;
20417;SDS011;10368;51.436;6.774;2022-12-10T05:07:42;77.27;;;32.53;;
20417;SDS011;10368;51.436;6.774;2022-12-10T05:10:09;79.70;;;33.57;;
20417;SDS011;10368;51.436;6.774;2022-12-10T05:12:36;79.33;;;33.53;;
20417;SDS011;10368;51.436;6.774;2022-12-10T05:15:03;75.67;;;33.40;;
20417;SDS011;10368;51.436;6.774;2022-12-10T05:17:31;87.43;;;34.40;;
20417;SDS011;10368;51.436;6.774;2022-12-10T05:19:59;82.13;;;31.80;;
20417;SDS011;10368;51.436;6.774;2022-12-10T05:22:26;85.73;;;34.10;;
20417;SDS011;10368;51.436;6.774;2022-12-10T05:25:11;74.77;;;31.80;;
20417;SDS011;10368;51.436;6.774;2022-12-10T05:27:38;74.30;;;32.60;;
20417;SDS011;10368;51.436;6.774;2022-12-10T05:30:05;80.67;;;32.60;;
20417;SDS011;10368;51.436;6.774;2022-12-10T05:32:33;85.00;;;33.73;;
20417;SDS011;10368;51.436;6.774;2022-12-10T05:35:00;84.30;;;35.57;;
20417;SDS011;10368;51.436;6.774;2022-12-10T05:37:27;94.60;;;35.93;;
20417;SDS011;10368;51.436;6.774;2022-12-10T05:39:54;105.90;;;36.73;;
20417;SDS011;10368;51.436;6.774;2022-12-10T05:42:21;132.07;;;39.20;;
20417;SDS011;10368;51.436;6.774;2022-12-10T05:44:48;107.97;;;37.73;;
20417;SDS011;10368;51.436;6.774;2022-12-10T05:47:18;115.03;;;36.23;;
20417;SDS011;10368;51.436;6.774;2022-12-10T05:49:45;121.67;;;39.80;;
20417;SDS011;10368;51.436;6.774;2022-12-10T05:52:17;108.33;;;37.67;;
20417;SDS011;10368;51.436;6.774;2022-12-10T05:54:44;103.23;;;39.20;;
20417;SDS011;10368;51.436;6.774;2022-12-10T05:57:11;91.00;;;34.10;;
20417;SDS011;10368;51.436;6.774;2022-12-10T05:59:38;79.17;;;30.73;;
20417;SDS011;10368;51.436;6.774;2022-12-10T06:02:05;70.67;;;30.93;;
20417;SDS011;10368;51.436;6.774;2022-12-10T06:04:32;67.53;;;30.33;;
20417;SDS011;10368;51.436;6.774;2022-12-10T06:06:59;72.50;;;29.73;;
20417;SDS011;10368;51.436;6.774;2022-12-10T06:09:27;61.30;;;28.80;;
20417;SDS011;10368;51.436;6.774;2022-12-10T06:11:54;66.47;;;27.40;;
20417;SDS011;10368;51.436;6.774;2022-12-10T06:14:20;56.47;;;26.27;;
20417;SDS011;10368;51.436;6.774;2022-12-10T06:16:47;64.63;;;27.97;;
20417;SDS011;10368;51.436;6.774;2022-12-10T06:19:14;56.77;;;27.30;;
20417;SDS011;10368;51.436;6.774;2022-12-10T06:21:41;57.07;;;25.77;;
20417;SDS011;10368;51.436;6.774;2022-12-10T06:24:08;56.67;;;25.53;;
20417;SDS011;10368;51.436;6.774;2022-12-10T06:26:35;56.77;;;26.60;;
20417;SDS011;10368;51.436;6.774;2022-12-10T06:29:02;60.07;;;26.87;;
20417;SDS011;10368;51.436;6.774;2022-12-10T06:31:31;55.60;;;26.80;;
20417;SDS011;10368;51.436;6.774;2022-12-10T06:33:57;54.60;;;27.23;;
20417;SDS011;10368;51.436;6.774;2022-12-10T06:36:27;62.47;;;27.23;;
20417;SDS011;10368;51.436;6.774;2022-12-10T06:38:54;63.50;;;27.60;;
20417;SDS011;10368;51.436;6.774;2022-12-10T06:41:21;66.77;;;30.03;;
20417;SDS011;10368;51.436;6.774;2022-12-10T06:43:48;60.23;;;26.90;;
20417;SDS011;10368;51.436;6.774;2022-12-10T06:46:17;64.43;;;29.60;;
20417;SDS011;10368;51.436;6.774;2022-12-10T06:48:46;70.00;;;31.03;;
20417;SDS011;10368;51.436;6.774;2022-12-10T06:51:14;67.73;;;29.67;;
20417;SDS011;10368;51.436;6.774;2022-12-10T06:53:41;73.70;;;30.60;;
20417;SDS011;10368;51.436;6.774;2022-12-10T06:56:11;70.47;;;30.57;;
20417;SDS011;10368;51.436;6.774;2022-12-10T06:58:40;68.63;;;30.97;;
20417;SDS011;10368;51.436;6.774;2022-12-10T07:01:12;68.47;;;29.73;;
20417;SDS011;10368;51.436;6.774;2022-12-10T07:03:41;69.60;;;30.53;;
20417;SDS011;10368;51.436;6.774;2022-12-10T07:06:09;75.70;;;32.40;;
20417;SDS011;10368;51.436;6.774;2022-12-10T07:08:37;77.60;;;33.47;;
20417;SDS011;10368;51.436;6.774;2022-12-10T07:11:10;75.73;;;33.53;;
20417;SDS011;10368;51.436;6.774;2022-12-10T07:13:38;82.33;;;33.70;;
20417;SDS011;10368;51.436;6.774;2022-12-10T07:16:16;81.90;;;31.83;;
20417;SDS011;10368;51.436;6.774;2022-12-10T07:18:44;80.07;;;33.47;;
20417;SDS011;10368;51.436;6.774;2022-12-10T07:21:21;85.40;;;33.03;;
20417;SDS011;10368;51.436;6.774;2022-12-10T07:24:02;92.17;;;33.83;;
20417;SDS011;10368;51.436;6.774;2022-12-10T07:26:32;86.40;;;33.63;;
20417;SDS011;10368;51.436;6.774;2022-12-10T07:29:02;83.70;;;33.17;;
20417;SDS011;10368;51.436;6.774;2022-12-10T07:31:30;101.63;;;35.37;;
20417;SDS011;10368;51.436;6.774;2022-12-10T07:33:58;98.43;;;36.47;;
20417;SDS011;10368;51.436;6.774;2022-12-10T07:36:25;97.73;;;36.30;;
20417;SDS011;10368;51.436;6.774;2022-12-10T07:38:53;105.73;;;38.27;;
20417;SDS011;10368;51.436;6.774;2022-12-10T07:41:21;92.47;;;37.00;;
20417;SDS011;10368;51.436;6.774;2022-12-10T07:43:48;102.40;;;37.10;;
20417;SDS011;10368;51.436;6.774;2022-12-10T07:46:17;91.53;;;36.80;;
20417;SDS011;10368;51.436;6.774;2022-12-10T07:48:47;97.53;;;37.53;;
20417;SDS011;10368;51.436;6.774;2022-12-10T07:51:16;100.10;;;37.03;;
20417;SDS011;10368;51.436;6.774;2022-12-10T07:53:44;96.60;;;36.20;;
20417;SDS011;10368;51.436;6.774;2022-12-10T07:56:11;107.73;;;37.40;;
20417;SDS011;10368;51.436;6.774;2022-12-10T08:01:43;102.63;;;36.60;;
20417;SDS011;10368;51.436;6.774;2022-12-10T08:04:10;100.93;;;37.27;;
20417;SDS011;10368;51.436;6.774;2022-12-10T08:06:37;109.40;;;38.83;;
20417;SDS011;10368;51.436;6.774;2022-12-10T08:09:04;105.40;;;38.10;;
20417;SDS011;10368;51.436;6.774;2022-12-10T08:11:31;108.73;;;40.23;;
20417;SDS011;10368;51.436;6.774;2022-12-10T08:13:58;108.97;;;38.77;;
20417;SDS011;10368;51.436;6.774;2022-12-10T08:16:26;100.37;;;37.27;;
20417;SDS011;10368;51.436;6.774;2022-12-10T08:18:55;102.77;;;38.83;;
20417;SDS011;10368;51.436;6.774;2022-12-10T08:21:25;100.13;;;37.30;;
20417;SDS011;10368;51.436;6.774;2022-12-10T08:23:54;93.30;;;35.87;;
20417;SDS011;10368;51.436;6.774;2022-12-10T08:26:22;97.73;;;35.77;;
20417;SDS011;10368;51.436;6.774;2022-12-10T08:28:51;107.90;;;39.13;;
20417;SDS011;10368;51.436;6.774;2022-12-10T08:31:19;96.33;;;36.63;;
20417;SDS011;10368;51.436;6.774;2022-12-10T08:33:47;88.00;;;35.50;;
20417;SDS011;10368;51.436;6.774;2022-12-10T08:36:15;97.63;;;35.10;;
20417;SDS011;10368;51.436;6.774;2022-12-10T08:38:43;93.37;;;35.20;;
20417;SDS011;10368;51.436;6.774;2022-12-10T08:41:12;97.53;;;35.43;;
20417;SDS011;10368;51.436;6.774;2022-12-10T08:43:41;100.20;;;37.67;;
20417;SDS011;10368;51.436;6.774;2022-12-10T08:46:08;93.07;;;37.00;;
20417;SDS011;10368;51.436;6.774;2022-12-10T08:48:36;104.50;;;37.60;;
20417;SDS011;10368;51.436;6.774;2022-12-10T08:51:04;94.87;;;35.97;;
20417;SDS011;10368;51.436;6.774;2022-12-10T08:53:32;94.30;;;36.17;;
20417;SDS011;10368;51.436;6.774;2022-12-10T08:55:59;103.17;;;37.17;;
20417;SDS011;10368;51.436;6.774;2022-12-10T08:58:26;100.60;;;39.33;;
20417;SDS011;10368;51.436;6.774;2022-12-10T09:00:53;104.20;;;37.97;;
20417;SDS011;10368;51.436;6.774;2022-12-10T09:03:21;86.77;;;34.83;;
20417;SDS011;10368;51.436;6.774;2022-12-10T09:05:49;96.37;;;38.53;;
20417;SDS011;10368;51.436;6.774;2022-12-10T09:08:16;83.67;;;34.97;;
20417;SDS011;10368;51.436;6.774;2022-12-10T09:10:43;104.50;;;37.00;;
20417;SDS011;10368;51.436;6.774;2022-12-10T09:13:10;91.37;;;34.97;;
20417;SDS011;10368;51.436;6.774;2022-12-10T09:15:38;89.33;;;35.90;;
20417;SDS011;10368;51.436;6.774;2022-12-10T09:18:05;99.20;;;35.17;;
20417;SDS011;10368;51.436;6.774;2022-12-10T09:20:31;100.60;;;37.07;;
20417;SDS011;10368;51.436;6.774;2022-12-10T09:22:58;84.63;;;33.13;;
20417;SDS011;10368;51.436;6.774;2022-12-10T09:25:25;85.90;;;32.30;;
20417;SDS011;10368;51.436;6.774;2022-12-10T09:28:01;88.57;;;33.03;;
20417;SDS011;10368;51.436;6.774;2022-12-10T09:30:27;83.17;;;31.50;;
20417;SDS011;10368;51.436;6.774;2022-12-10T09:32:54;89.67;;;32.93;;
20417;SDS011;10368;51.436;6.774;2022-12-10T09:35:21;92.13;;;33.47;;
20417;SDS011;10368;51.436;6.774;2022-12-10T09:37:48;84.80;;;30.87;;
20417;SDS011;10368;51.436;6.774;2022-12-10T09:40:16;92.87;;;34.30;;
20417;SDS011;10368;51.436;6.774;2022-12-10T09:45:30;95.10;;;34.10;;
20417;SDS011;10368;51.436;6.774;2022-12-10T09:48:10;101.17;;;36.53;;
20417;SDS011;10368;51.436;6.774;2022-12-10T09:53:51;96.33;;;35.57;;
20417;SDS011;10368;51.436;6.774;2022-12-10T09:56:26;96.23;;;34.90;;
20417;SDS011;10368;51.436;6.774;2022-12-10T09:58:57;99.27;;;35.60;;
20417;SDS011;10368;51.436;6.774;2022-12-10T10:01:28;94.77;;;34.50;;
20417;SDS011;10368;51.436;6.774;2022-12-10T10:03:58;93.10;;;35.57;;
20417;SDS011;10368;51.436;6.774;2022-12-10T10:06:25;90.63;;;34.83;;
20417;SDS011;10368;51.436;6.774;2022-12-10T10:08:55;91.00;;;33.23;;
20417;SDS011;10368;51.436;6.774;2022-12-10T10:11:29;92.40;;;34.93;;
20417;SDS011;10368;51.436;6.774;2022-12-10T10:14:00;92.40;;;33.67;;
20417;SDS011;10368;51.436;6.774;2022-12-10T10:19:05;91.23;;;36.90;;
20417;SDS011;10368;51.436;6.774;2022-12-10T10:21:44;78.90;;;30.73;;
20417;SDS011;10368;51.436;6.774;2022-12-10T10:24:16;80.57;;;32.93;;
20417;SDS011;10368;51.436;6.774;2022-12-10T10:26:57;67.37;;;29.33;;
20417;SDS011;10368;51.436;6.774;2022-12-10T10:29:26;64.90;;;27.03;;
20417;SDS011;10368;51.436;6.774;2022-12-10T10:32:10;55.80;;;24.83;;
20417;SDS011;10368;51.436;6.774;2022-12-10T10:34:55;59.90;;;28.23;;
20417;SDS011;10368;51.436;6.774;2022-12-10T10:40:00;55.93;;;26.57;;
20417;SDS011;10368;51.436;6.774;2022-12-10T10:42:38;56.13;;;26.63;;
20417;SDS011;10368;51.436;6.774;2022-12-10T10:50:42;57.10;;;26.40;;
20417;SDS011;10368;51.436;6.774;2022-12-10T10:55:58;50.77;;;25.33;;
20417;SDS011;10368;51.436;6.774;2022-12-10T10:58:31;54.33;;;24.13;;
20417;SDS011;10368;51.436;6.774;2022-12-10T11:01:06;49.80;;;23.70;;
20417;SDS011;10368;51.436;6.774;2022-12-10T11:03:35;59.20;;;26.13;;
20417;SDS011;10368;51.436;6.774;2022-12-10T11:06:05;51.87;;;25.27;;
20417;SDS011;10368;51.436;6.774;2022-12-10T11:08:33;50.47;;;23.80;;
20417;SDS011;10368;51.436;6.774;2022-12-10T11:11:05;49.97;;;25.17;;
20417;SDS011;10368;51.436;6.774;2022-12-10T11:13:37;45.73;;;23.80;;
20417;SDS011;10368;51.436;6.774;2022-12-10T11:16:38;47.40;;;23.33;;
20417;SDS011;10368;51.436;6.774;2022-12-10T11:19:00;48.77;;;26.20;;
20417;SDS011;10368;51.436;6.774;2022-12-10T11:21:30;45.33;;;23.33;;
20417;SDS011;10368;51.436;6.774;2022-12-10T11:24:00;45.87;;;22.77;;
20417;SDS011;10368;51.436;6.774;2022-12-10T11:26:37;49.50;;;24.83;;
20417;SDS011;10368;51.436;6.774;2022-12-10T11:34:44;49.77;;;24.43;;
20417;SDS011;10368;51.436;6.774;2022-12-10T11:40:33;47.80;;;24.60;;
20417;SDS011;10368;51.436;6.774;2022-12-10T11:54:05;57.13;;;27.17;;
20417;SDS011;10368;51.436;6.774;2022-12-10T11:56:38;53.80;;;26.37;;
20417;SDS011;10368;51.436;6.774;2022-12-10T11:59:18;53.90;;;26.23;;
20417;SDS011;10368;51.436;6.774;2022-12-10T12:02:25;53.00;;;25.13;;
20417;SDS011;10368;51.436;6.774;2022-12-10T12:10:30;61.23;;;28.60;;
20417;SDS011;10368;51.436;6.774;2022-12-10T12:13:26;66.90;;;29.03;;
20417;SDS011;10368;51.436;6.774;2022-12-10T12:19:13;67.33;;;29.43;;
20417;SDS011;10368;51.436;6.774;2022-12-10T12:21:48;66.67;;;28.80;;
20417;SDS011;10368;51.436;6.774;2022-12-10T12:24:33;67.27;;;28.60;;
20417;SDS011;10368;51.436;6.774;2022-12-10T12:27:04;60.63;;;28.33;;
20417;SDS011;10368;51.436;6.774;2022-12-10T12:29:45;78.30;;;31.43;;
20417;SDS011;10368;51.436;6.774;2022-12-10T12:35:21;68.97;;;30.63;;
20417;SDS011;10368;51.436;6.774;2022-12-10T12:53:19;59.53;;;27.73;;
20417;SDS011;10368;51.436;6.774;2022-12-10T12:58:36;60.53;;;27.17;;
20417;SDS011;10368;51.436;6.774;2022-12-10T13:03:43;56.00;;;24.50;;
20417;SDS011;10368;51.436;6.774;2022-12-10T13:06:12;54.87;;;24.93;;
20417;SDS011;10368;51.436;6.774;2022-12-10T13:14:33;50.70;;;24.10;;
20417;SDS011;10368;51.436;6.774;2022-12-10T13:17:09;56.67;;;25.33;;
20417;SDS011;10368;51.436;6.774;2022-12-10T13:19:53;53.80;;;24.47;;
20417;SDS011;10368;51.436;6.774;2022-12-10T13:23:05;62.33;;;25.40;;
20417;SDS011;10368;51.436;6.774;2022-12-10T13:36:19;47.37;;;23.27;;
20417;SDS011;10368;51.436;6.774;2022-12-10T13:41:33;41.60;;;22.83;;
20417;SDS011;10368;51.436;6.774;2022-12-10T13:44:31;49.87;;;25.03;;
20417;SDS011;10368;51.436;6.774;2022-12-10T13:47:05;44.40;;;23.17;;
20417;SDS011;10368;51.436;6.774;2022-12-10T13:50:02;50.07;;;24.70;;
20417;SDS011;10368;51.436;6.774;2022-12-10T14:07:27;54.40;;;25.90;;
20417;SDS011;10368;51.436;6.774;2022-12-10T14:09:55;52.47;;;26.47;;
20417;SDS011;10368;51.436;6.774;2022-12-10T14:14:55;62.27;;;27.83;;
20417;SDS011;10368;51.436;6.774;2022-12-10T14:17:33;60.17;;;29.80;;
20417;SDS011;10368;51.436;6.774;2022-12-10T14:20:05;61.77;;;30.50;;
20417;SDS011;10368;51.436;6.774;2022-12-10T14:22:48;63.23;;;28.93;;
20417;SDS011;10368;51.436;6.774;2022-12-10T14:25:19;61.07;;;28.43;;
20417;SDS011;10368;51.436;6.774;2022-12-10T14:27:49;61.80;;;28.37;;
20417;SDS011;10368;51.436;6.774;2022-12-10T14:30:18;57.40;;;27.80;;
20417;SDS011;10368;51.436;6.774;2022-12-10T14:32:50;59.50;;;28.53;;
20417;SDS011;10368;51.436;6.774;2022-12-10T14:35:21;63.03;;;30.13;;
20417;SDS011;10368;51.436;6.774;2022-12-10T14:37:52;63.33;;;28.87;;
20417;SDS011;10368;51.436;6.774;2022-12-10T14:40:25;66.60;;;30.83;;
20417;SDS011;10368;51.436;6.774;2022-12-10T14:42:59;65.33;;;28.20;;
20417;SDS011;10368;51.436;6.774;2022-12-10T14:45:34;60.27;;;28.10;;
20417;SDS011;10368;51.436;6.774;2022-12-10T14:48:12;57.93;;;28.73;;
20417;SDS011;10368;51.436;6.774;2022-12-10T14:50:42;57.50;;;26.87;;
20417;SDS011;10368;51.436;6.774;2022-12-10T14:53:15;62.43;;;28.63;;
20417;SDS011;10368;51.436;6.774;2022-12-10T14:55:51;59.43;;;29.37;;
20417;SDS011;10368;51.436;6.774;2022-12-10T15:01:05;67.07;;;30.73;;
20417;SDS011;10368;51.436;6.774;2022-12-10T15:03:35;62.10;;;29.20;;
20417;SDS011;10368;51.436;6.774;2022-12-10T15:06:12;62.83;;;27.77;;
20417;SDS011;10368;51.436;6.774;2022-12-10T15:08:43;64.27;;;27.70;;
20417;SDS011;10368;51.436;6.774;2022-12-10T15:11:15;59.00;;;27.50;;
20417;SDS011;10368;51.436;6.774;2022-12-10T15:13:44;64.23;;;28.03;;
20417;SDS011;10368;51.436;6.774;2022-12-10T15:16:27;61.03;;;27.33;;
20417;SDS011;10368;51.436;6.774;2022-12-10T15:19:48;67.70;;;30.07;;
20417;SDS011;10368;51.436;6.774;2022-12-10T15:22:01;61.27;;;28.33;;
20417;SDS011;10368;51.436;6.774;2022-12-10T15:24:44;63.40;;;27.57;;
20417;SDS011;10368;51.436;6.774;2022-12-10T15:29:42;63.83;;;28.67;;
20417;SDS011;10368;51.436;6.774;2022-12-10T15:32:10;84.60;;;33.43;;
20417;SDS011;10368;51.436;6.774;2022-12-10T15:34:54;59.70;;;27.53;;
20417;SDS011;10368;51.436;6.774;2022-12-10T15:37:29;59.43;;;27.63;;
20417;SDS011;10368;51.436;6.774;2022-12-10T15:40:01;62.27;;;27.23;;
20417;SDS011;10368;51.436;6.774;2022-12-10T15:42:35;64.67;;;27.27;;
20417;SDS011;10368;51.436;6.774;2022-12-10T15:45:25;72.80;;;29.37;;
20417;SDS011;10368;51.436;6.774;2022-12-10T15:47:59;72.30;;;29.40;;
20417;SDS011;10368;51.436;6.774;2022-12-10T15:50:26;65.53;;;26.13;;
20417;SDS011;10368;51.436;6.774;2022-12-10T15:52:53;66.37;;;28.83;;
20417;SDS011;10368;51.436;6.774;2022-12-10T15:55:20;69.33;;;27.47;;
20417;SDS011;10368;51.436;6.774;2022-12-10T15:57:47;61.70;;;25.90;;
20417;SDS011;10368;51.436;6.774;2022-12-10T16:00:27;62.43;;;26.07;;
20417;SDS011;10368;51.436;6.774;2022-12-10T16:05:26;67.07;;;27.43;;
20417;SDS011;10368;51.436;6.774;2022-12-10T16:07:56;63.20;;;27.37;;
20417;SDS011;10368;51.436;6.774;2022-12-10T16:10:27;62.77;;;25.70;;
20417;SDS011;10368;51.436;6.774;2022-12-10T16:12:58;56.63;;;25.03;;
20417;SDS011;10368;51.436;6.774;2022-12-10T16:15:29;66.17;;;26.47;;
20417;SDS011;10368;51.436;6.774;2022-12-10T16:18:02;59.57;;;25.33;;
20417;SDS011;10368;51.436;6.774;2022-12-10T16:20:31;68.93;;;28.57;;
20417;SDS011;10368;51.436;6.774;2022-12-10T16:22:59;61.23;;;25.00;;
20417;SDS011;10368;51.436;6.774;2022-12-10T16:25:27;63.00;;;26.90;;
20417;SDS011;10368;51.436;6.774;2022-12-10T16:27:56;70.37;;;26.67;;
20417;SDS011;10368;51.436;6.774;2022-12-10T16:30:34;68.43;;;26.33;;
20417;SDS011;10368;51.436;6.774;2022-12-10T16:33:12;64.43;;;24.87;;
20417;SDS011;10368;51.436;6.774;2022-12-10T16:35:39;65.60;;;25.33;;
20417;SDS011;10368;51.436;6.774;2022-12-10T16:38:06;66.83;;;26.17;;
20417;SDS011;10368;51.436;6.774;2022-12-10T16:40:36;72.97;;;25.83;;
20417;SDS011;10368;51.436;6.774;2022-12-10T16:43:04;61.23;;;25.17;;
20417;SDS011;10368;51.436;6.774;2022-12-10T16:45:36;80.00;;;29.20;;
20417;SDS011;10368;51.436;6.774;2022-12-10T16:48:04;81.63;;;28.87;;
20417;SDS011;10368;51.436;6.774;2022-12-10T16:50:32;66.77;;;27.43;;
20417;SDS011;10368;51.436;6.774;2022-12-10T16:53:01;75.80;;;28.43;;
20417;SDS011;10368;51.436;6.774;2022-12-10T16:55:32;72.97;;;26.63;;
20417;SDS011;10368;51.436;6.774;2022-12-10T16:58:00;70.67;;;26.87;;
20417;SDS011;10368;51.436;6.774;2022-12-10T17:00:27;69.70;;;27.33;;
20417;SDS011;10368;51.436;6.774;2022-12-10T17:02:54;77.23;;;28.87;;
20417;SDS011;10368;51.436;6.774;2022-12-10T17:05:33;76.40;;;26.07;;
20417;SDS011;10368;51.436;6.774;2022-12-10T17:08:05;73.77;;;27.50;;
20417;SDS011;10368;51.436;6.774;2022-12-10T17:10:32;69.57;;;25.57;;